YWLM/NTL METAR and TAF weather

Enter ICAO airport designator
Station Type Date Time Source
YWLM METAR 2022/01/26 14:30 UTC NOAA

YWLM 261430Z AUTO 00000KT 9999 // SCT046 16/14 Q1014


Station Type Date Time Source
YWLM Decoded METAR 2022/01/26 14:30 UTC NOAA

Station name not available
Jan 26, 2022 - 09:30 AM EST / 2022.01.26 1430 UTC
Wind: Calm:0
Visibility: greater than 7 mile(s):0
Sky conditions: partly cloudy
Temperature: 60 F (16 C)
Dew Point: 57 F (14 C)
Relative Humidity: 87%
Pressure (altimeter): 29.94 in. Hg (1014 hPa)
ob: YWLM 261430Z AUTO 00000KT 9999 // SCT046 16/14 Q1014
cycle: 14

Station Type Date Time Source
YWLM TAF 2022/01/26 12:36 UTC NOAA

TAF YWLM 261100Z 2612/2712 07006KT 9999 SCT035
FM270000 07014KT 9999 SCT045

Example: see airport list